createdAt,value
2023-05-01T00:02:11.831Z,82.90
2023-05-01T00:04:38.792Z,82.80
2023-05-01T00:07:05.771Z,83.60
2023-05-01T00:09:33.148Z,83.40
2023-05-01T00:12:00.090Z,83.00
2023-05-01T00:14:26.976Z,83.00
2023-05-01T00:16:53.976Z,84.20
2023-05-01T00:19:20.910Z,84.20
2023-05-01T00:21:48.484Z,84.30
2023-05-01T00:24:17.077Z,84.20
2023-05-01T00:26:45.048Z,84.60
2023-05-01T00:29:12.006Z,84.70
2023-05-01T00:31:39.050Z,84.60
2023-05-01T00:34:06.167Z,84.60
2023-05-01T00:36:33.191Z,84.30
2023-05-01T00:39:00.115Z,84.40
2023-05-01T00:41:27.124Z,84.70
2023-05-01T00:43:54.216Z,84.90
2023-05-01T00:46:21.766Z,84.80
2023-05-01T00:48:48.797Z,84.80
2023-05-01T00:51:15.825Z,84.50
2023-05-01T00:53:43.876Z,84.90
2023-05-01T00:56:11.619Z,85.50
2023-05-01T00:58:39.232Z,85.60
2023-05-01T01:01:08.800Z,85.50
2023-05-01T01:03:35.875Z,86.00
2023-05-01T01:06:47.312Z,86.10
2023-05-01T01:09:48.156Z,86.60
2023-05-01T01:12:55.092Z,86.70
2023-05-01T01:15:36.030Z,86.60
2023-05-01T01:18:37.747Z,86.10
2023-05-01T01:21:13.868Z,86.20
2023-05-01T01:23:43.260Z,85.70
2023-05-01T01:27:02.580Z,85.40
2023-05-01T01:30:22.104Z,85.80
2023-05-01T01:33:27.625Z,85.50
2023-05-01T01:35:58.054Z,85.90
2023-05-01T01:38:42.429Z,85.30
2023-05-01T01:41:14.886Z,85.70
2023-05-01T01:43:48.664Z,85.40
2023-05-01T01:46:17.832Z,85.80
2023-05-01T01:48:48.648Z,85.60
2023-05-01T01:51:18.575Z,85.90
2023-05-01T01:53:52.698Z,86.20
2023-05-01T01:56:22.073Z,86.00
2023-05-01T01:58:51.294Z,85.80
2023-05-01T02:01:20.805Z,86.10
2023-05-01T02:03:48.876Z,86.20
2023-05-01T02:06:17.231Z,86.00
2023-05-01T02:08:46.861Z,86.60
2023-05-01T02:11:15.787Z,86.70
2023-05-01T02:13:44.802Z,86.70
2023-05-01T02:16:13.368Z,86.40
2023-05-01T02:18:41.510Z,86.50
2023-05-01T02:21:09.722Z,87.10
2023-05-01T02:23:38.478Z,87.00
2023-05-01T02:26:07.101Z,87.00
2023-05-01T02:28:35.783Z,87.20
2023-05-01T02:31:02.676Z,87.30
2023-05-01T02:33:29.591Z,87.70
2023-05-01T02:35:57.858Z,87.30
2023-05-01T02:38:24.837Z,87.80
2023-05-01T02:40:57.117Z,87.60
2023-05-01T02:43:27.034Z,87.90
2023-05-01T02:45:55.254Z,87.90
2023-05-01T02:48:25.890Z,87.90
2023-05-01T02:50:55.555Z,88.20
2023-05-01T02:53:22.841Z,88.20
2023-05-01T02:55:53.940Z,88.30
2023-05-01T02:58:21.505Z,88.00
2023-05-01T03:00:51.701Z,87.90
2023-05-01T03:03:20.032Z,88.00
2023-05-01T03:05:47.887Z,87.70
2023-05-01T03:08:15.063Z,88.00
2023-05-01T03:10:43.201Z,88.20
2023-05-01T03:13:11.545Z,88.30
2023-05-01T03:15:38.886Z,89.20
2023-05-01T03:18:05.980Z,89.00
2023-05-01T03:20:32.935Z,89.20
2023-05-01T03:23:00.118Z,89.20
2023-05-01T03:25:27.123Z,89.20
2023-05-01T03:27:55.273Z,89.50
2023-05-01T03:30:23.079Z,89.40
2023-05-01T03:32:51.932Z,89.60
2023-05-01T03:35:24.779Z,89.40
2023-05-01T03:37:51.777Z,89.00
2023-05-01T03:40:38.675Z,89.30
2023-05-01T03:43:24.571Z,89.70
2023-05-01T03:45:53.110Z,89.60
2023-05-01T03:48:20.506Z,89.60
2023-05-01T03:50:47.602Z,89.80
2023-05-01T03:53:15.353Z,90.00
2023-05-01T03:55:43.463Z,90.00
2023-05-01T03:58:12.899Z,90.00
2023-05-01T04:00:39.963Z,90.00
2023-05-01T04:03:07.108Z,90.10
2023-05-01T04:05:36.187Z,90.10
2023-05-01T04:08:04.405Z,90.30
2023-05-01T04:10:31.465Z,90.50
2023-05-01T04:13:03.761Z,90.90
2023-05-01T04:15:30.699Z,91.60
2023-05-01T04:17:57.883Z,91.40
2023-05-01T04:20:24.834Z,91.40
2023-05-01T04:22:51.951Z,91.10
2023-05-01T04:25:19.229Z,91.00
2023-05-01T04:27:49.743Z,90.90
2023-05-01T04:30:16.716Z,90.80
2023-05-01T04:32:43.993Z,90.70
2023-05-01T04:35:12.367Z,90.60
2023-05-01T04:37:42.349Z,90.60
2023-05-01T04:40:11.659Z,90.70
2023-05-01T04:42:39.428Z,90.60
2023-05-01T04:45:09.937Z,90.50
2023-05-01T04:47:37.181Z,90.40
2023-05-01T04:50:06.165Z,90.30
2023-05-01T04:52:33.082Z,90.20
2023-05-01T04:55:03.723Z,90.00
2023-05-01T04:57:33.716Z,89.70
2023-05-01T05:00:05.627Z,89.40
2023-05-01T05:02:34.574Z,89.40
2023-05-01T05:05:01.733Z,89.00
2023-05-01T05:07:28.701Z,88.60
2023-05-01T05:10:18.246Z,88.40
2023-05-01T05:12:53.980Z,88.20
2023-05-01T05:15:21.592Z,87.70
2023-05-01T05:17:48.620Z,87.80
2023-05-01T05:20:15.747Z,87.70
2023-05-01T05:22:42.639Z,87.40
2023-05-01T05:25:24.481Z,87.10
2023-05-01T05:27:52.473Z,87.50
2023-05-01T05:30:19.499Z,86.30
2023-05-01T05:32:47.752Z,86.30
2023-05-01T05:35:14.903Z,86.40
2023-05-01T05:37:43.362Z,86.40
2023-05-01T05:40:12.167Z,86.20
2023-05-01T05:42:49.118Z,86.10
2023-05-01T05:45:16.128Z,85.60
2023-05-01T05:47:43.040Z,85.20
2023-05-01T05:50:11.269Z,84.80
2023-05-01T05:52:38.939Z,84.20
2023-05-01T05:55:06.856Z,84.00
2023-05-01T05:57:37.102Z,83.80
2023-05-01T06:00:09.278Z,83.20
2023-05-01T06:02:39.549Z,82.70
2023-05-01T06:05:08.219Z,81.80
2023-05-01T06:07:35.941Z,82.30
2023-05-01T06:10:04.348Z,81.50
2023-05-01T06:12:31.826Z,80.20
2023-05-01T06:14:59.955Z,80.30
2023-05-01T06:17:27.515Z,80.60
2023-05-01T06:19:54.593Z,80.80
2023-05-01T06:22:22.730Z,80.70
2023-05-01T06:25:01.621Z,80.50
2023-05-01T06:27:30.461Z,80.20
2023-05-01T06:29:57.554Z,79.80
2023-05-01T06:32:24.905Z,78.40
2023-05-01T06:34:52.652Z,78.20
2023-05-01T06:37:19.823Z,78.80
2023-05-01T06:39:48.117Z,77.10
2023-05-01T06:42:16.794Z,77.70
2023-05-01T06:44:44.188Z,78.10
2023-05-01T06:47:11.266Z,75.80
2023-05-01T06:49:40.467Z,75.90
2023-05-01T06:52:07.397Z,75.00
2023-05-01T06:54:34.296Z,74.60
2023-05-01T06:57:01.348Z,75.50
2023-05-01T06:59:28.266Z,74.50
2023-05-01T07:01:55.167Z,74.30
2023-05-01T07:04:22.088Z,73.70
2023-05-01T07:06:49.314Z,73.90
2023-05-01T07:09:16.335Z,73.80
2023-05-01T07:11:43.288Z,73.50
2023-05-01T07:14:10.236Z,73.30
2023-05-01T07:16:37.213Z,73.50
2023-05-01T07:19:04.227Z,72.70
2023-05-01T07:21:32.308Z,72.30
2023-05-01T07:23:59.229Z,72.00
2023-05-01T07:26:29.190Z,71.00
2023-05-01T07:28:56.078Z,71.20
2023-05-01T07:31:23.401Z,71.00
2023-05-01T07:33:51.096Z,71.10
2023-05-01T07:36:20.448Z,71.40
2023-05-01T07:38:47.791Z,69.70
2023-05-01T07:41:14.701Z,69.60
2023-05-01T07:43:41.567Z,69.60
2023-05-01T07:46:08.535Z,67.80
2023-05-01T07:48:36.932Z,65.00
2023-05-01T07:51:05.859Z,66.80
2023-05-01T07:53:33.156Z,66.10
2023-05-01T07:56:10.172Z,67.20
2023-05-01T07:58:38.135Z,65.00
2023-05-01T08:01:06.411Z,64.30
2023-05-01T08:03:33.438Z,64.20
2023-05-01T08:06:00.519Z,62.30
2023-05-01T08:08:27.453Z,62.60
2023-05-01T08:10:54.845Z,62.40
2023-05-01T08:13:21.759Z,62.30
2023-05-01T08:15:49.137Z,62.30
2023-05-01T08:18:20.395Z,61.40
2023-05-01T08:20:48.423Z,59.70
2023-05-01T08:23:18.693Z,60.50
2023-05-01T08:25:46.960Z,59.30
2023-05-01T08:28:15.044Z,59.90
2023-05-01T08:30:41.984Z,59.90
2023-05-01T08:33:08.909Z,60.60
2023-05-01T08:35:35.897Z,60.70
2023-05-01T08:38:03.129Z,59.70
2023-05-01T08:40:36.432Z,59.50
2023-05-01T08:43:04.159Z,59.50
2023-05-01T08:45:36.202Z,57.60
2023-05-01T08:48:10.227Z,57.70
2023-05-01T08:50:39.847Z,57.90
2023-05-01T08:53:07.054Z,57.10
2023-05-01T08:55:35.314Z,56.90
2023-05-01T08:58:04.235Z,56.90
2023-05-01T09:00:34.297Z,57.60
2023-05-01T09:03:03.081Z,55.70
2023-05-01T09:05:32.909Z,56.00
2023-05-01T09:08:00.769Z,56.00
2023-05-01T09:10:27.861Z,54.40
2023-05-01T09:12:59.904Z,55.30
2023-05-01T09:15:28.293Z,55.70
2023-05-01T09:17:56.483Z,55.20
2023-05-01T09:20:24.445Z,54.20
2023-05-01T09:22:51.640Z,53.90
2023-05-01T09:25:19.352Z,53.90
2023-05-01T09:27:46.289Z,53.50
2023-05-01T09:30:39.615Z,53.10
2023-05-01T09:33:15.392Z,53.70
2023-05-01T09:35:54.580Z,53.30
2023-05-01T09:38:27.111Z,52.50
2023-05-01T09:40:56.951Z,53.00
2023-05-01T09:43:28.340Z,52.90
2023-05-01T09:46:11.925Z,52.90
2023-05-01T09:48:39.483Z,52.20
2023-05-01T09:51:29.324Z,51.50
2023-05-01T09:53:59.654Z,50.90
2023-05-01T09:56:29.038Z,50.50
2023-05-01T09:58:57.999Z,50.40
2023-05-01T10:01:39.993Z,51.40
2023-05-01T10:04:09.570Z,50.90
2023-05-01T10:06:38.434Z,50.30
2023-05-01T10:09:07.837Z,50.30
2023-05-01T10:11:59.124Z,50.80
2023-05-01T10:14:28.075Z,49.90
2023-05-01T10:16:56.762Z,50.50
2023-05-01T10:19:23.786Z,49.10
2023-05-01T10:21:50.849Z,49.60
2023-05-01T10:24:17.852Z,49.60
2023-05-01T10:26:48.609Z,49.20
2023-05-01T10:29:15.948Z,48.10
2023-05-01T10:31:42.959Z,47.80
2023-05-01T10:34:12.478Z,48.10
2023-05-01T10:36:54.797Z,48.90
2023-05-01T10:39:34.023Z,47.20
2023-05-01T10:42:06.226Z,45.80
2023-05-01T10:44:34.898Z,46.90
2023-05-01T10:47:24.534Z,47.20
2023-05-01T10:50:12.477Z,47.20
2023-05-01T10:53:14.329Z,47.30
2023-05-01T10:55:49.418Z,46.40
2023-05-01T10:58:43.582Z,46.40
2023-05-01T11:01:44.936Z,47.30
2023-05-01T11:04:24.544Z,46.40
2023-05-01T11:07:10.848Z,47.40
2023-05-01T11:09:42.773Z,46.20
2023-05-01T11:12:11.987Z,45.70
2023-05-01T11:14:54.630Z,44.70
2023-05-01T11:17:39.942Z,43.80
2023-05-01T11:20:08.513Z,45.30
2023-05-01T11:22:37.316Z,46.00
2023-05-01T11:25:18.219Z,45.60
2023-05-01T11:27:49.846Z,45.10
2023-05-01T11:30:17.112Z,44.70
2023-05-01T11:32:47.698Z,44.30
2023-05-01T11:35:21.075Z,44.20
2023-05-01T11:37:49.014Z,45.00
2023-05-01T11:40:24.517Z,45.20
2023-05-01T11:43:01.427Z,42.80
2023-05-01T11:45:28.871Z,43.40
2023-05-01T11:47:56.257Z,44.00
2023-05-01T11:50:32.330Z,44.30
2023-05-01T11:52:59.242Z,44.70
2023-05-01T11:55:35.760Z,43.90
2023-05-01T11:58:04.904Z,43.90
2023-05-01T12:00:38.235Z,44.20
2023-05-01T12:03:15.503Z,44.00
2023-05-01T12:05:44.717Z,43.20
2023-05-01T12:08:19.476Z,43.80
2023-05-01T12:10:53.133Z,43.80
2023-05-01T12:13:20.689Z,43.90
2023-05-01T12:15:50.417Z,44.50
2023-05-01T12:18:18.555Z,44.50
2023-05-01T12:20:48.588Z,44.80
2023-05-01T12:23:16.633Z,44.70
2023-05-01T12:25:45.476Z,44.20
2023-05-01T12:28:19.480Z,42.80
2023-05-01T12:30:49.893Z,42.50
2023-05-01T12:33:19.290Z,42.80
2023-05-01T12:35:49.085Z,43.20
2023-05-01T12:38:21.773Z,43.20
2023-05-01T12:40:59.621Z,43.80
2023-05-01T12:43:36.806Z,42.00
2023-05-01T12:46:06.084Z,42.00
2023-05-01T12:48:34.326Z,42.30
2023-05-01T12:51:01.754Z,41.70
2023-05-01T12:53:30.003Z,42.40
2023-05-01T12:55:58.638Z,41.60
2023-05-01T12:58:37.020Z,40.70
2023-05-01T13:01:04.384Z,40.80
2023-05-01T13:03:33.380Z,41.40
2023-05-01T13:06:03.139Z,41.80
2023-05-01T13:08:32.161Z,42.00
2023-05-01T13:11:01.723Z,41.90
2023-05-01T13:13:33.522Z,41.00
2023-05-01T13:16:13.963Z,40.50
2023-05-01T13:18:52.262Z,41.20
2023-05-01T13:21:22.489Z,41.10
2023-05-01T13:24:07.409Z,41.30
2023-05-01T13:26:35.964Z,40.70
2023-05-01T13:29:06.033Z,41.20
2023-05-01T13:31:33.226Z,40.30
2023-05-01T13:34:00.938Z,40.50
2023-05-01T13:36:34.351Z,40.30
2023-05-01T13:39:01.382Z,40.20
2023-05-01T13:41:29.918Z,40.00
2023-05-01T13:43:57.543Z,38.80
2023-05-01T13:46:26.629Z,39.70
2023-05-01T13:48:53.860Z,39.40
2023-05-01T13:51:23.894Z,39.60
2023-05-01T13:53:53.435Z,39.60
2023-05-01T13:56:21.778Z,39.80
2023-05-01T13:58:50.217Z,39.00
2023-05-01T14:01:20.564Z,39.20
2023-05-01T14:03:48.910Z,38.80
2023-05-01T14:06:19.159Z,39.10
2023-05-01T14:08:48.074Z,38.70
2023-05-01T14:11:15.407Z,38.40
2023-05-01T14:13:44.254Z,38.70
2023-05-01T14:16:24.668Z,38.50
2023-05-01T14:18:55.438Z,38.90
2023-05-01T14:21:24.602Z,39.30
2023-05-01T14:23:56.679Z,39.00
2023-05-01T14:26:24.540Z,39.60
2023-05-01T14:28:51.475Z,39.60
2023-05-01T14:31:30.346Z,38.70
2023-05-01T14:34:03.730Z,38.70
2023-05-01T14:36:33.849Z,38.40
2023-05-01T14:39:03.429Z,39.00
2023-05-01T14:41:31.512Z,39.00
2023-05-01T14:43:58.407Z,39.50
2023-05-01T14:46:31.724Z,39.10
2023-05-01T14:49:00.836Z,39.90
2023-05-01T14:51:29.189Z,39.60
2023-05-01T14:53:56.264Z,39.90
2023-05-01T14:56:23.827Z,39.20
2023-05-01T14:58:50.807Z,39.20
2023-05-01T15:01:18.219Z,39.40
2023-05-01T15:03:45.852Z,38.80
2023-05-01T15:06:13.042Z,39.00
2023-05-01T15:08:40.237Z,39.60
2023-05-01T15:11:07.596Z,39.50
2023-05-01T15:13:34.597Z,39.80
2023-05-01T15:16:01.574Z,39.60
2023-05-01T15:18:28.492Z,39.60
2023-05-01T15:20:55.709Z,39.90
2023-05-01T15:23:23.863Z,39.90
2023-05-01T15:25:50.963Z,40.20
2023-05-01T15:28:17.928Z,39.90
2023-05-01T15:30:46.724Z,40.10
2023-05-01T15:33:17.763Z,40.20
2023-05-01T15:35:46.899Z,40.20
2023-05-01T15:38:13.792Z,40.00
2023-05-01T15:40:43.181Z,40.30
2023-05-01T15:43:10.091Z,39.90
2023-05-01T15:45:42.587Z,40.00
2023-05-01T15:48:10.066Z,40.00
2023-05-01T15:50:37.023Z,40.30
2023-05-01T15:53:03.950Z,39.80
2023-05-01T15:55:30.821Z,40.30
2023-05-01T15:57:57.707Z,40.30
2023-05-01T16:00:25.362Z,40.40
2023-05-01T16:02:52.395Z,40.00
2023-05-01T16:05:24.617Z,40.60
2023-05-01T16:07:55.545Z,40.60
2023-05-01T16:10:23.299Z,40.80
2023-05-01T16:12:51.080Z,40.90
2023-05-01T16:15:18.618Z,40.60
2023-05-01T16:17:46.677Z,40.50
2023-05-01T16:20:14.877Z,40.60
2023-05-01T16:22:43.176Z,40.70
2023-05-01T16:25:11.258Z,40.90
2023-05-01T16:27:45.870Z,41.20
2023-05-01T16:30:16.790Z,40.70
2023-05-01T16:32:44.804Z,40.80
2023-05-01T16:35:17.671Z,40.60
2023-05-01T16:37:44.623Z,40.70
2023-05-01T16:40:16.802Z,40.80
2023-05-01T16:42:52.086Z,40.70
2023-05-01T16:45:19.728Z,40.40
2023-05-01T16:47:47.094Z,41.00
2023-05-01T16:50:14.298Z,40.90
2023-05-01T16:52:41.195Z,40.90
2023-05-01T16:55:09.140Z,40.80
2023-05-01T16:57:36.085Z,40.80
2023-05-01T17:00:05.023Z,40.80
2023-05-01T17:02:33.460Z,40.90
2023-05-01T17:05:00.450Z,41.10
2023-05-01T17:07:27.425Z,41.00
2023-05-01T17:09:54.654Z,40.90
2023-05-01T17:12:21.642Z,40.70
2023-05-01T17:14:48.535Z,40.50
2023-05-01T17:17:17.750Z,40.20
2023-05-01T17:19:44.683Z,40.20
2023-05-01T17:22:11.642Z,40.00
2023-05-01T17:24:38.833Z,39.90
2023-05-01T17:27:05.769Z,40.00
2023-05-01T17:29:32.655Z,40.10
2023-05-01T17:31:59.609Z,40.10
2023-05-01T17:34:26.936Z,40.30
2023-05-01T17:36:55.195Z,40.30
2023-05-01T17:39:23.465Z,40.70
2023-05-01T17:41:50.374Z,41.00
2023-05-01T17:44:17.248Z,41.00
2023-05-01T17:46:44.249Z,41.00
2023-05-01T17:49:11.133Z,41.40
2023-05-01T17:51:38.049Z,41.60
2023-05-01T17:54:05.955Z,42.00
2023-05-01T17:56:33.042Z,42.10
2023-05-01T17:59:00.025Z,42.30
2023-05-01T18:01:28.268Z,42.50
2023-05-01T18:03:55.492Z,42.70
2023-05-01T18:06:22.513Z,42.90
2023-05-01T18:08:50.088Z,42.80
2023-05-01T18:11:17.143Z,43.00
2023-05-01T18:13:47.303Z,43.20
2023-05-01T18:16:15.842Z,43.30
2023-05-01T18:18:42.896Z,44.40
2023-05-01T18:21:09.788Z,46.00
2023-05-01T18:23:36.727Z,46.20
2023-05-01T18:26:03.838Z,47.20
2023-05-01T18:28:31.571Z,47.50
2023-05-01T18:30:58.596Z,48.30
2023-05-01T18:33:25.920Z,48.50
2023-05-01T18:35:53.640Z,49.30
2023-05-01T18:38:20.666Z,49.10
2023-05-01T18:40:47.855Z,49.50
2023-05-01T18:43:15.622Z,49.80
2023-05-01T18:45:42.525Z,50.20
2023-05-01T18:48:09.449Z,50.30
2023-05-01T18:50:36.461Z,50.30
2023-05-01T18:53:03.487Z,50.60
2023-05-01T18:55:30.939Z,50.70
2023-05-01T18:57:58.096Z,51.00
2023-05-01T19:00:26.456Z,51.40
2023-05-01T19:02:53.665Z,51.60
2023-05-01T19:05:22.356Z,52.00
2023-05-01T19:07:49.393Z,52.30
2023-05-01T19:10:16.311Z,52.80
2023-05-01T19:12:43.338Z,53.20
2023-05-01T19:15:10.509Z,53.40
2023-05-01T19:17:37.704Z,53.60
2023-05-01T19:20:05.498Z,53.90
2023-05-01T19:22:32.442Z,54.10
2023-05-01T19:25:00.100Z,54.30
2023-05-01T19:27:27.151Z,54.70
2023-05-01T19:29:54.527Z,54.90
2023-05-01T19:32:22.959Z,55.30
2023-05-01T19:34:50.235Z,55.50
2023-05-01T19:37:17.497Z,55.80
2023-05-01T19:39:44.498Z,56.20
2023-05-01T19:42:11.852Z,56.30
2023-05-01T19:44:38.783Z,56.60
2023-05-01T19:47:05.718Z,56.80
2023-05-01T19:49:32.583Z,57.00
2023-05-01T19:51:59.756Z,56.90
2023-05-01T19:54:26.727Z,57.00
2023-05-01T19:56:53.602Z,57.20
2023-05-01T19:59:20.635Z,57.40
2023-05-01T20:01:47.578Z,57.50
2023-05-01T20:04:14.517Z,57.60
2023-05-01T20:06:41.427Z,57.60
2023-05-01T20:09:08.300Z,57.80
2023-05-01T20:11:35.256Z,57.80
2023-05-01T20:14:03.525Z,58.10
2023-05-01T20:16:30.937Z,58.50
2023-05-01T20:18:57.923Z,58.70
2023-05-01T20:21:24.847Z,58.70
2023-05-01T20:23:52.316Z,58.90
2023-05-01T20:26:19.186Z,59.10
2023-05-01T20:28:46.761Z,58.50
2023-05-01T20:31:13.782Z,58.60
2023-05-01T20:33:40.760Z,59.30
2023-05-01T20:36:07.715Z,59.70
2023-05-01T20:38:42.265Z,59.90
2023-05-01T20:41:10.004Z,60.10
2023-05-01T20:43:36.990Z,60.00
2023-05-01T20:46:03.898Z,60.00
2023-05-01T20:48:32.204Z,60.10
2023-05-01T20:50:59.054Z,60.50
2023-05-01T20:53:25.922Z,60.40
2023-05-01T20:55:52.778Z,60.20
2023-05-01T20:58:19.671Z,60.00
2023-05-01T21:00:46.510Z,59.70
2023-05-01T21:03:15.204Z,59.40
2023-05-01T21:05:42.274Z,59.20
2023-05-01T21:08:09.155Z,59.10
2023-05-01T21:10:36.755Z,59.00
2023-05-01T21:13:03.749Z,58.90
2023-05-01T21:15:32.006Z,58.70
2023-05-01T21:17:59.530Z,58.70
2023-05-01T21:20:35.765Z,58.70
2023-05-01T21:23:02.794Z,58.70
2023-05-01T21:25:31.890Z,58.60
2023-05-01T21:28:02.119Z,58.50
2023-05-01T21:30:34.721Z,58.30
2023-05-01T21:33:05.368Z,58.20
2023-05-01T21:35:32.747Z,58.20
2023-05-01T21:38:00.339Z,58.20
2023-05-01T21:40:27.428Z,58.30
2023-05-01T21:42:54.977Z,58.40
2023-05-01T21:45:22.447Z,58.60
2023-05-01T21:47:51.211Z,58.70
2023-05-01T21:50:21.158Z,58.90
2023-05-01T21:52:49.610Z,59.00
2023-05-01T21:55:25.881Z,59.20
2023-05-01T21:57:55.580Z,59.50
2023-05-01T22:00:22.448Z,59.40
2023-05-01T22:02:50.937Z,59.50
2023-05-01T22:05:22.512Z,59.60
2023-05-01T22:07:54.113Z,59.70
2023-05-01T22:10:21.146Z,59.70
2023-05-01T22:12:51.540Z,59.80
2023-05-01T22:15:18.649Z,59.80
2023-05-01T22:17:45.867Z,60.00
2023-05-01T22:20:13.159Z,60.20
2023-05-01T22:22:41.320Z,60.50
2023-05-01T22:25:09.801Z,60.70
2023-05-01T22:27:36.896Z,60.70
2023-05-01T22:30:05.202Z,60.80
2023-05-01T22:32:32.160Z,61.10
2023-05-01T22:34:59.328Z,60.90
2023-05-01T22:37:26.288Z,61.10
2023-05-01T22:39:53.774Z,61.30
2023-05-01T22:42:21.245Z,61.40
2023-05-01T22:44:48.412Z,61.60
2023-05-01T22:47:15.704Z,61.80
2023-05-01T22:49:42.607Z,61.70
2023-05-01T22:52:09.539Z,61.70
2023-05-01T22:54:36.432Z,61.90
2023-05-01T22:57:03.385Z,62.40
2023-05-01T22:59:30.323Z,63.00
2023-05-01T23:01:57.370Z,63.10
2023-05-01T23:04:24.412Z,63.20
2023-05-01T23:06:51.407Z,63.20
2023-05-01T23:09:18.388Z,63.40
2023-05-01T23:11:47.693Z,63.30
2023-05-01T23:14:18.085Z,63.70
2023-05-01T23:16:45.044Z,64.20
2023-05-01T23:19:25.501Z,63.80
2023-05-01T23:22:08.945Z,64.00
2023-05-01T23:24:56.067Z,64.00
2023-05-01T23:27:22.961Z,64.00
2023-05-01T23:29:54.595Z,63.50
2023-05-01T23:32:30.621Z,63.60
2023-05-01T23:35:05.561Z,64.20
2023-05-01T23:37:32.544Z,64.10
2023-05-01T23:40:00.735Z,63.90
2023-05-01T23:42:28.341Z,63.90
2023-05-01T23:44:56.739Z,64.00
2023-05-01T23:47:23.728Z,64.00
2023-05-01T23:49:51.359Z,64.20
2023-05-01T23:52:18.332Z,64.70
2023-05-01T23:54:45.202Z,64.80
2023-05-01T23:57:12.199Z,65.10
2023-05-01T23:59:39.059Z,65.40
